Mc Kenney, Virginia
Current Conditions -  °F | °C
As of 4:55 AM on Sunday 21 Dec 2014 (Local Time) from KBKT Reporting Station
Overcast Overcast  
Wind Chill: 34°   Ceiling: 3900
Heat Index: 34°   Visibility: 10mi
Dew Point: 27°   Wind: 0mph
Humidity: 77%   Direction: NA
Pressure: 30.28"   Gusts: NA
Location:  37.0016°N, 77.7543°W
Report Text: KBKT 210955Z AUTO 00000KT 10SM BKN039 OVC070 01/M03 A3028 RMK AO1 T00111026
Loading
Personal Weather Stations






























Interactive Weather Map New forecast layout! Learn more

10-Day Weather Forecast

Advertisements
Track Severe Weather on mobile